Time;durP1;ratioP1;P1;durP2;ratioP2;P2;SDS_P1;SDS_P2;PMS_P1;PMS_P2;Temp;Humidity;BMP_temperature;BMP_pressure;BME280_temperature;BME280_humidity;BME280_pressure;Samples;Min_cycle;Max_cycle;Signal;HPM_P1;HPM_P2
2021/01/20 00:01:52;;;;;;;9.53;6.30;;;;;;;;;;4892588;28;20793;-74
2021/01/20 00:04:14;;;;;;;9.27;5.67;;;;;;;;;;4895217;28;20637;-74
2021/01/20 00:06:36;;;;;;;7.27;5.60;;;1.10;99.90;;;;;;4895886;28;20614;-74
2021/01/20 00:08:59;;;;;;;8.43;5.77;;;1.40;99.90;;;;;;4897289;28;20591;-74
2021/01/20 00:11:21;;;;;;;8.83;5.83;;;1.10;99.90;;;;;;4897279;28;20679;-74
2021/01/20 00:13:43;;;;;;;8.23;5.53;;;;;;;;;;4896985;28;21257;-74
2021/01/20 00:16:06;;;;;;;7.70;5.67;;;1.30;99.90;;;;;;4895526;28;20702;-75
2021/01/20 00:18:28;;;;;;;9.03;6.13;;;;;;;;;;4897257;28;21140;-75
2021/01/20 00:20:50;;;;;;;9.13;6.07;;;1.00;99.90;;;;;;4896936;28;20609;-74
2021/01/20 00:23:13;;;;;;;7.07;5.63;;;;;;;;;;4897200;28;20690;-74
2021/01/20 00:25:35;;;;;;;10.17;6.03;;;;;;;;;;4897308;28;20628;-74
2021/01/20 00:27:57;;;;;;;8.87;6.33;;;;;;;;;;4895279;28;20663;-74
2021/01/20 00:30:20;;;;;;;9.57;6.70;;;1.30;99.90;;;;;;4896870;28;20655;-74
2021/01/20 00:32:43;;;;;;;9.20;6.53;;;1.10;99.90;;;;;;4896882;28;20671;-74
2021/01/20 00:35:07;;;;;;;9.43;5.83;;;1.20;99.90;;;;;;4861606;28;20685;-75
2021/01/20 00:37:29;;;;;;;7.10;5.33;;;1.10;99.90;;;;;;4875165;28;20618;-74
2021/01/20 00:39:51;;;;;;;7.70;5.53;;;;;;;;;;4879540;28;20630;-73
2021/01/20 00:42:13;;;;;;;6.63;5.10;;;;;;;;;;4896291;28;20663;-74
2021/01/20 00:44:36;;;;;;;7.17;5.77;;;;;;;;;;4895658;28;20270;-74
2021/01/20 00:46:59;;;;;;;8.67;6.27;;;;;;;;;;4896175;28;20203;-75
2021/01/20 00:49:22;;;;;;;7.20;5.10;;;1.30;99.90;;;;;;4904128;28;20612;-74
2021/01/20 00:51:44;;;;;;;6.17;5.00;;;1.00;99.90;;;;;;4894911;28;20621;-73
2021/01/20 00:54:06;;;;;;;7.37;4.97;;;1.20;99.90;;;;;;4895521;28;20707;-74
2021/01/20 00:56:29;;;;;;;7.07;4.87;;;;;;;;;;4895978;28;21011;-75
2021/01/20 00:58:51;;;;;;;6.47;4.63;;;1.00;99.90;;;;;;4897083;28;20614;-75
2021/01/20 01:01:13;;;;;;;7.07;4.80;;;1.00;99.90;;;;;;4894332;28;20675;-74
2021/01/20 01:03:36;;;;;;;7.27;5.40;;;;;;;;;;4879212;28;20638;-75
2021/01/20 01:05:58;;;;;;;7.30;4.80;;;1.60;99.90;;;;;;4894843;28;20679;-74
2021/01/20 01:08:22;;;;;;;7.33;5.80;;;2.40;99.90;;;;;;4897012;28;20621;-75
2021/01/20 01:10:45;;;;;;;6.43;5.27;;;;;;;;;;4879393;28;20193;-75
2021/01/20 01:13:30;;;;;;;6.80;4.67;;;;;;;;;;4884073;28;22451;-75
2021/01/20 01:16:12;;;;;;;7.50;4.60;;;1.40;99.90;;;;;;4896614;28;20192;-75
2021/01/20 01:18:36;;;;;;;6.90;4.90;;;;;;;;;;4895591;28;20625;-74
2021/01/20 01:20:58;;;;;;;5.97;4.80;;;1.50;99.90;;;;;;4895087;28;20298;-75
2021/01/20 01:23:21;;;;;;;7.40;5.03;;;;;;;;;;4894846;28;20306;-75
2021/01/20 01:25:43;;;;;;;6.57;4.77;;;;;;;;;;4904173;28;21015;-75
2021/01/20 01:28:12;;;;;;;6.57;4.77;;;1.50;99.90;;;;;;4895411;28;20626;-75
2021/01/20 01:30:40;;;;;;;5.67;4.57;;;1.40;99.90;;;;;;4895243;28;21047;-75
2021/01/20 01:33:03;;;;;;;6.37;5.13;;;1.50;99.90;;;;;;4895108;28;20254;-75
2021/01/20 01:35:31;;;;;;;6.30;5.00;;;;;;;;;;4895482;28;20672;-75
2021/01/20 01:38:01;;;;;;;7.00;5.57;;;1.50;99.90;;;;;;4906145;28;20694;-75
2021/01/20 01:40:52;;;;;;;6.57;4.87;;;;;;;;;;4888450;28;20667;-74
2021/01/20 01:43:38;;;;;;;6.50;4.97;;;;;;;;;;4887087;28;20622;-75
2021/01/20 01:46:26;;;;;;;6.63;4.90;;;1.70;99.90;;;;;;4893149;28;20204;-74
2021/01/20 01:49:26;;;;;;;7.23;5.10;;;1.50;99.90;;;;;;4855659;28;20658;-75
2021/01/20 01:51:51;;;;;;;6.10;5.00;;;;;;;;;;4854641;28;20669;-75
2021/01/20 01:54:33;;;;;;;7.63;5.23;;;0.60;99.90;;;;;;4862047;28;21064;-75
2021/01/20 01:57:02;;;;;;;6.27;4.50;;;;;;;;;;4894832;28;20618;-75
2021/01/20 01:59:30;;;;;;;6.07;4.33;;;2.20;99.90;;;;;;4891121;28;20606;-75
2021/01/20 02:01:53;;;;;;;6.80;5.20;;;;;;;;;;4891396;28;20625;-75
2021/01/20 02:04:23;;;;;;;5.83;4.60;;;1.50;99.90;;;;;;4893876;28;20578;-74
2021/01/20 02:06:54;;;;;;;4.83;4.20;;;1.70;99.90;;;;;;4893932;28;20204;-75
2021/01/20 02:09:22;;;;;;;8.00;5.20;;;1.50;99.90;;;;;;4894128;28;20625;-74
2021/01/20 02:12:00;;;;;;;5.90;4.90;;;1.60;99.90;;;;;;4894342;28;20626;-75
2021/01/20 02:14:33;;;;;;;7.37;5.00;;;1.40;99.90;;;;;;4894263;28;20727;-74
2021/01/20 02:17:21;;;;;;;5.33;4.30;;;1.50;99.90;;;;;;4877663;28;20626;-73
2021/01/20 02:20:05;;;;;;;8.03;4.70;;;1.60;99.90;;;;;;4893816;28;20718;-75
2021/01/20 02:22:32;;;;;;;5.43;4.60;;;1.50;99.90;;;;;;4883665;28;20715;-75
2021/01/20 02:25:39;;;;;;;6.87;4.83;;;1.70;99.90;;;;;;4895500;28;20586;-74
2021/01/20 02:28:27;;;;;;;6.10;4.63;;;1.50;99.90;;;;;;4895248;28;20200;-75
2021/01/20 02:31:21;;;;;;;5.53;4.93;;;1.70;99.90;;;;;;4881401;28;20985;-75
2021/01/20 02:33:46;;;;;;;5.30;4.63;;;1.90;99.90;;;;;;4895577;28;20205;-74
2021/01/20 02:36:16;;;;;;;6.40;4.73;;;1.50;99.90;;;;;;4892422;28;20735;-75
2021/01/20 02:38:50;;;;;;;6.20;4.77;;;;;;;;;;4889175;28;20192;-73
2021/01/20 02:41:23;;;;;;;4.90;4.10;;;1.80;99.90;;;;;;4877583;28;20227;-75
2021/01/20 02:44:14;;;;;;;5.47;4.13;;;1.90;99.90;;;;;;4884633;28;20305;-75
2021/01/20 02:46:51;;;;;;;4.63;4.17;;;1.50;99.90;;;;;;4877410;28;20185;-75
2021/01/20 02:49:25;;;;;;;5.90;4.10;;;;;;;;;;4877634;28;20699;-75
2021/01/20 02:51:53;;;;;;;4.20;3.80;;;1.70;99.90;;;;;;4894308;28;20219;-75
2021/01/20 02:54:51;;;;;;;4.43;4.03;;;1.80;99.90;;;;;;4861494;28;20638;-74
2021/01/20 02:57:35;;;;;;;4.30;3.73;;;1.50;99.90;;;;;;4885405;28;20193;-75
2021/01/20 03:00:05;;;;;;;4.80;3.83;;;1.90;99.90;;;;;;4893050;28;20258;-74
2021/01/20 03:02:39;;;;;;;4.33;3.73;;;2.00;99.90;;;;;;4888390;28;20224;-74
2021/01/20 03:05:02;;;;;;;4.47;3.57;;;2.10;99.90;;;;;;4894362;28;20214;-74
2021/01/20 03:07:25;;;;;;;4.60;3.47;;;2.10;99.90;;;;;;4895179;28;20215;-75
2021/01/20 03:09:47;;;;;;;4.73;3.40;;;;;;;;;;4894667;28;20238;-75
2021/01/20 03:12:10;;;;;;;4.93;3.60;;;2.00;99.90;;;;;;4895440;28;20192;-74
2021/01/20 03:14:33;;;;;;;5.60;3.50;;;2.40;99.90;;;;;;4898267;28;20727;-73
2021/01/20 03:16:55;;;;;;;3.80;3.40;;;2.00;99.90;;;;;;4899082;28;20181;-74
2021/01/20 03:19:18;;;;;;;3.93;3.30;;;2.50;99.90;;;;;;4898817;28;20212;-74
2021/01/20 03:21:40;;;;;;;4.53;3.70;;;2.00;99.90;;;;;;4899141;28;20221;-75
2021/01/20 03:24:02;;;;;;;4.77;3.70;;;1.80;99.90;;;;;;4899147;28;20185;-74
2021/01/20 03:26:24;;;;;;;4.13;3.73;;;2.10;99.90;;;;;;4882090;28;21073;-74
2021/01/20 03:28:46;;;;;;;5.40;3.53;;;2.40;99.90;;;;;;4898992;28;20188;-75
2021/01/20 03:31:08;;;;;;;4.30;3.90;;;2.30;99.90;;;;;;4898790;28;20185;-74
2021/01/20 03:33:30;;;;;;;3.50;3.20;;;;;;;;;;4896714;28;20250;-75
2021/01/20 03:35:53;;;;;;;5.10;3.73;;;2.50;99.90;;;;;;4898600;28;20214;-73
2021/01/20 03:38:15;;;;;;;4.27;3.30;;;2.20;99.90;;;;;;4897596;28;20250;-74
2021/01/20 03:40:38;;;;;;;5.23;3.90;;;;;;;;;;4897554;28;20184;-75
2021/01/20 03:43:00;;;;;;;4.60;3.90;;;;;;;;;;4898487;28;20186;-75
2021/01/20 03:45:22;;;;;;;4.40;3.73;;;2.30;99.90;;;;;;4898419;28;20286;-75
2021/01/20 03:47:44;;;;;;;3.40;3.03;;;2.60;99.90;;;;;;4898869;28;20180;-75
2021/01/20 03:50:08;;;;;;;5.40;3.80;;;3.10;99.90;;;;;;4898142;28;20700;-75
2021/01/20 03:52:30;;;;;;;4.00;3.33;;;1.80;99.90;;;;;;4898550;28;20185;-75
2021/01/20 03:54:53;;;;;;;4.00;3.60;;;;;;;;;;4897946;28;20278;-74
2021/01/20 03:57:15;;;;;;;4.57;3.87;;;2.60;99.90;;;;;;4898444;28;20659;-76
2021/01/20 03:59:37;;;;;;;4.80;4.13;;;2.50;99.90;;;;;;4897161;28;20238;-76
2021/01/20 04:02:00;;;;;;;5.90;4.37;;;2.50;99.90;;;;;;4895177;28;20285;-75
2021/01/20 04:04:22;;;;;;;4.47;3.73;;;2.20;99.90;;;;;;4896596;28;20188;-75
2021/01/20 04:06:45;;;;;;;4.90;4.17;;;2.30;99.90;;;;;;4897115;28;20180;-75
2021/01/20 04:09:08;;;;;;;4.23;3.83;;;2.30;99.90;;;;;;4896971;28;20648;-75
2021/01/20 04:11:30;;;;;;;3.50;3.10;;;2.20;99.90;;;;;;4897115;28;20189;-75
2021/01/20 04:13:53;;;;;;;4.93;4.27;;;;;;;;;;4896564;28;20737;-75
2021/01/20 04:16:15;;;;;;;4.87;4.30;;;2.40;99.90;;;;;;4896263;28;20549;-74
2021/01/20 04:18:37;;;;;;;4.77;3.80;;;2.30;99.90;;;;;;4896367;28;20200;-75
2021/01/20 04:20:59;;;;;;;5.13;4.63;;;2.50;99.90;;;;;;4896346;28;20686;-76
2021/01/20 04:23:22;;;;;;;4.50;4.00;;;2.60;99.90;;;;;;4897877;28;20183;-76
2021/01/20 04:25:45;;;;;;;4.90;4.40;;;3.20;99.90;;;;;;4898057;28;20716;-75
2021/01/20 04:28:07;;;;;;;5.03;4.20;;;2.00;99.90;;;;;;4898478;28;20189;-75
2021/01/20 04:30:29;;;;;;;4.97;4.47;;;2.10;99.90;;;;;;4896484;28;20246;-75
2021/01/20 04:32:51;;;;;;;5.63;4.27;;;2.70;99.90;;;;;;4896978;28;20589;-76
2021/01/20 04:35:13;;;;;;;5.03;4.17;;;2.00;99.90;;;;;;4896449;28;20607;-76
2021/01/20 04:37:35;;;;;;;4.80;4.20;;;2.60;99.90;;;;;;4896380;28;20196;-75
2021/01/20 04:39:57;;;;;;;4.43;4.03;;;;;;;;;;4897635;28;20241;-75
2021/01/20 04:42:22;;;;;;;4.70;3.90;;;2.60;99.90;;;;;;4897707;28;20239;-74
2021/01/20 04:44:47;;;;;;;4.20;3.80;;;3.00;99.90;;;;;;4896337;28;20654;-75
2021/01/20 04:47:10;;;;;;;4.10;3.70;;;2.70;99.90;;;;;;4897304;28;20242;-74
2021/01/20 04:49:34;;;;;;;4.07;3.67;;;2.70;99.90;;;;;;4897550;28;20189;-74
2021/01/20 04:51:57;;;;;;;3.80;3.50;;;2.80;99.90;;;;;;4904690;28;20184;-74
2021/01/20 04:54:21;;;;;;;3.47;3.17;;;2.80;99.90;;;;;;4911985;28;20206;-74
2021/01/20 04:56:45;;;;;;;4.40;4.00;;;2.90;99.90;;;;;;4904306;28;20188;-75
2021/01/20 04:59:08;;;;;;;3.57;3.03;;;2.80;99.90;;;;;;4895519;28;20200;-74
2021/01/20 05:01:31;;;;;;;5.70;3.47;;;3.20;99.90;;;;;;4894777;28;20270;-75
2021/01/20 05:03:54;;;;;;;4.40;3.40;;;2.80;99.90;;;;;;4895711;28;20625;-75
2021/01/20 05:06:17;;;;;;;3.87;3.40;;;2.80;99.90;;;;;;4897295;28;20218;-74
2021/01/20 05:08:39;;;;;;;3.87;3.23;;;2.90;99.90;;;;;;4897178;28;20184;-75
2021/01/20 05:11:01;;;;;;;3.77;3.17;;;;;;;;;;4897166;28;20184;-73
2021/01/20 05:13:25;;;;;;;3.37;3.00;;;3.10;99.90;;;;;;4895499;28;20201;-74
2021/01/20 05:15:48;;;;;;;3.87;3.13;;;2.80;99.90;;;;;;4896778;28;20219;-74
2021/01/20 05:18:10;;;;;;;4.10;3.17;;;2.70;99.90;;;;;;4896425;28;20192;-75
2021/01/20 05:20:33;;;;;;;3.70;3.03;;;3.20;99.90;;;;;;4895743;28;20678;-73
2021/01/20 05:22:57;;;;;;;4.87;3.07;;;2.90;99.90;;;;;;4895491;28;20224;-75
2021/01/20 05:25:27;;;;;;;4.07;3.40;;;2.80;99.90;;;;;;4895059;28;20226;-74
2021/01/20 05:27:49;;;;;;;4.47;3.10;;;3.00;99.90;;;;;;4896536;28;20215;-73
2021/01/20 05:30:12;;;;;;;3.70;2.87;;;3.10;93.40;;;;;;4895333;28;20192;-74
2021/01/20 05:32:35;;;;;;;4.60;3.10;;;3.20;99.90;;;;;;4896057;28;20184;-74
2021/01/20 05:34:59;;;;;;;3.63;2.97;;;3.10;92.50;;;;;;4896303;28;20208;-74
2021/01/20 05:37:21;;;;;;;3.37;2.93;;;;;;;;;;4894865;28;20651;-75
2021/01/20 05:39:43;;;;;;;3.30;3.00;;;3.50;99.90;;;;;;4894970;28;20197;-73
2021/01/20 05:42:08;;;;;;;3.93;3.10;;;3.20;91.40;;;;;;4896691;28;20246;-74
2021/01/20 05:44:30;;;;;;;3.13;2.83;;;3.60;99.90;;;;;;4887552;28;20238;-73
2021/01/20 05:46:53;;;;;;;3.53;3.20;;;3.50;99.00;;;;;;4896163;28;20703;-73
2021/01/20 05:49:23;;;;;;;4.20;3.63;;;3.00;99.90;;;;;;4894583;28;20757;-75
2021/01/20 05:51:45;;;;;;;4.17;3.43;;;3.50;91.80;;;;;;4896628;28;20250;-74
2021/01/20 05:54:08;;;;;;;4.50;3.00;;;3.30;89.50;;;;;;4878191;28;20271;-74
2021/01/20 05:56:31;;;;;;;4.63;3.27;;;4.30;91.40;;;;;;4896189;28;20185;-73
2021/01/20 05:58:53;;;;;;;3.70;3.30;;;3.20;98.40;;;;;;4894741;28;20189;-73
2021/01/20 06:01:17;;;;;;;5.10;3.53;;;3.80;97.00;;;;;;4891580;28;20662;-74
2021/01/20 06:03:39;;;;;;;3.70;3.20;;;;;;;;;;4894706;28;20283;-74
2021/01/20 06:06:04;;;;;;;4.00;3.37;;;3.70;96.70;;;;;;4896113;28;20181;-74
2021/01/20 06:08:27;;;;;;;4.87;4.10;;;3.30;96.10;;;;;;4887001;28;20289;-75
2021/01/20 06:10:49;;;;;;;4.57;4.00;;;3.30;95.90;;;;;;4905053;28;20643;-73
2021/01/20 06:13:11;;;;;;;3.40;3.10;;;3.60;95.70;;;;;;4894281;28;20205;-75
2021/01/20 06:15:33;;;;;;;3.27;2.80;;;3.20;95.60;;;;;;4894404;28;20599;-74
2021/01/20 06:17:57;;;;;;;3.33;3.00;;;3.00;94.40;;;;;;4893647;28;20551;-75
2021/01/20 06:20:23;;;;;;;4.07;3.33;;;3.50;78.80;;;;;;4894544;28;20265;-76
2021/01/20 06:22:48;;;;;;;4.10;3.27;;;3.50;80.90;;;;;;4895310;28;20254;-75
2021/01/20 06:25:14;;;;;;;4.47;3.70;;;3.90;95.00;;;;;;4894419;28;20756;-74
2021/01/20 06:27:42;;;;;;;4.23;3.70;;;3.40;95.00;;;;;;4892388;28;20184;-74
2021/01/20 06:30:09;;;;;;;4.40;3.80;;;3.80;95.40;;;;;;4894276;28;20223;-75
2021/01/20 06:32:32;;;;;;;5.93;3.90;;;3.30;90.90;;;;;;4915841;28;20266;-75
2021/01/20 06:34:55;;;;;;;4.70;4.00;;;3.50;95.30;;;;;;4890804;28;20277;-75
2021/01/20 06:37:34;;;;;;;5.17;3.40;;;3.60;78.40;;;;;;4895650;28;20246;-74
2021/01/20 06:39:57;;;;;;;5.57;4.10;;;3.80;94.10;;;;;;4894268;28;20192;-76
2021/01/20 06:42:31;;;;;;;4.27;3.87;;;3.30;93.80;;;;;;4894157;28;20911;-75
2021/01/20 06:45:18;;;;;;;4.20;3.80;;;3.70;77.60;;;;;;4895339;28;20630;-73
2021/01/20 06:48:02;;;;;;;5.30;3.90;;;3.80;93.70;;;;;;4887665;28;20617;-75
2021/01/20 06:50:25;;;;;;;4.03;3.63;;;;;;;;;;4893429;28;20200;-74
2021/01/20 06:53:01;;;;;;;3.87;3.53;;;3.70;93.10;;;;;;4895344;28;20586;-72
2021/01/20 06:55:32;;;;;;;5.17;3.70;;;4.10;91.10;;;;;;4894759;28;20218;-75
2021/01/20 06:58:17;;;;;;;4.50;3.83;;;3.80;68.30;;;;;;4893740;28;20234;-75
2021/01/20 07:00:40;;;;;;;6.73;6.03;;;3.90;65.50;;;;;;4888104;28;20294;-75
2021/01/20 07:03:04;;;;;;;5.13;4.03;;;3.90;67.10;;;;;;4893508;28;20217;-74
2021/01/20 07:05:40;;;;;;;5.10;3.60;;;3.60;90.20;;;;;;4893839;28;20193;-75
2021/01/20 07:08:07;;;;;;;5.93;3.97;;;4.00;64.80;;;;;;4893616;28;20654;-74
2021/01/20 07:10:45;;;;;;;4.77;4.03;;;3.90;83.00;;;;;;4893574;28;20222;-74
2021/01/20 07:13:33;;;;;;;4.30;3.83;;;4.40;81.10;;;;;;4842025;28;20667;-75
2021/01/20 07:15:56;;;;;;;4.60;3.90;;;3.90;82.20;;;;;;4874668;28;20275;-75
2021/01/20 07:18:22;;;;;;;4.90;4.23;;;4.10;57.70;;;;;;4876559;28;20185;-74
2021/01/20 07:20:45;;;;;;;4.77;4.33;;;4.10;79.10;;;;;;4874938;28;20197;-74
2021/01/20 07:23:07;;;;;;;4.80;4.30;;;4.20;76.30;;;;;;4837296;28;20210;-75
2021/01/20 07:25:30;;;;;;;4.90;4.40;;;4.10;75.50;;;;;;4831680;28;20194;-74
2021/01/20 07:27:53;;;;;;;5.10;4.37;;;4.10;74.10;;;;;;4855688;28;20225;-72
2021/01/20 07:30:17;;;;;;;6.47;4.63;;;4.10;73.70;;;;;;4856419;28;20244;-75
2021/01/20 07:32:39;;;;;;;6.57;4.10;;;4.40;71.90;;;;;;4857291;28;20187;-75
2021/01/20 07:35:02;;;;;;;5.83;4.27;;;;;;;;;;4855899;28;20659;-75
2021/01/20 07:37:24;;;;;;;5.93;4.60;;;4.60;68.30;;;;;;4857176;28;20714;-74
2021/01/20 07:39:46;;;;;;;4.97;4.17;;;4.70;51.00;;;;;;4857262;28;20187;-75
2021/01/20 07:42:09;;;;;;;4.03;3.23;;;4.70;63.20;;;;;;4855895;28;20627;-74
2021/01/20 07:44:31;;;;;;;4.40;3.80;;;4.20;42.10;;;;;;4857165;28;20244;-74
2021/01/20 07:46:59;;;;;;;4.43;3.90;;;4.40;56.20;;;;;;4823004;28;20195;-75
2021/01/20 07:49:21;;;;;;;5.07;4.20;;;4.40;52.40;;;;;;4839504;28;20249;-75
2021/01/20 07:51:43;;;;;;;4.80;4.03;;;4.90;48.70;;;;;;4855812;28;20248;-73
2021/01/20 07:54:06;;;;;;;5.47;4.30;;;4.90;26.60;;;;;;4856899;28;20187;-77
2021/01/20 07:56:28;;;;;;;4.67;3.27;;;4.50;21.90;;;;;;4855680;28;20237;-74
2021/01/20 07:58:51;;;;;;;4.47;3.63;;;4.70;34.70;;;;;;4843566;28;20628;-75
2021/01/20 08:01:25;;;;;;;5.90;4.20;;;4.90;15.70;;;;;;4840843;28;20233;-76
2021/01/20 08:03:48;;;;;;;5.17;4.30;;;5.00;3.30;;;;;;4878455;28;20268;-75
2021/01/20 08:06:10;;;;;;;4.50;4.10;;;5.30;13.00;;;;;;4860780;28;20243;-74
2021/01/20 08:08:33;;;;;;;5.17;3.73;;;5.30;6.20;;;;;;4864363;28;20216;-75
2021/01/20 08:11:00;;;;;;;5.73;4.07;;;5.40;1.00;;;;;;4870747;28;20591;-75
2021/01/20 08:13:25;;;;;;;6.33;4.37;;;6.00;1.00;;;;;;4870197;28;20186;-74
2021/01/20 08:15:48;;;;;;;5.23;3.47;;;;;;;;;;4866312;28;20230;-74
2021/01/20 08:18:13;;;;;;;5.00;4.17;;;6.00;1.00;;;;;;4868382;28;20193;-74
2021/01/20 08:20:37;;;;;;;4.87;3.63;;;6.20;99.90;;;;;;4867962;28;20202;-75
2021/01/20 08:23:00;;;;;;;5.47;3.60;;;6.10;99.90;;;;;;4893314;28;20250;-74
2021/01/20 08:25:23;;;;;;;5.70;4.07;;;6.00;99.90;;;;;;4890961;28;20218;-75
2021/01/20 08:27:46;;;;;;;5.03;3.83;;;6.00;1.00;;;;;;4898535;28;20329;-75
2021/01/20 08:30:09;;;;;;;4.33;3.70;;;6.10;1.00;;;;;;4906514;28;20292;-73
2021/01/20 08:32:31;;;;;;;5.77;3.77;;;5.70;99.90;;;;;;4913427;28;20188;-75
2021/01/20 08:34:55;;;;;;;4.27;3.43;;;5.90;1.00;;;;;;4911397;28;20212;-74
2021/01/20 08:37:21;;;;;;;5.13;3.40;;;5.90;1.00;;;;;;4916095;28;20241;-76
2021/01/20 08:39:53;;;;;;;4.83;3.20;;;5.90;1.00;;;;;;4914859;28;20192;-74
2021/01/20 08:42:19;;;;;;;4.97;3.73;;;5.80;11.00;;;;;;4897737;28;20527;-77
2021/01/20 08:44:42;;;;;;;4.93;3.80;;;5.70;1.00;;;;;;4896721;28;20181;-74
2021/01/20 08:47:04;;;;;;;4.80;3.80;;;6.60;1.00;;;;;;4901922;28;20578;-77
2021/01/20 08:49:26;;;;;;;3.87;3.37;;;6.10;1.00;;;;;;4915145;28;20211;-76
2021/01/20 08:51:56;;;;;;;4.87;3.07;;;5.90;99.90;;;;;;4915827;28;20183;-73
2021/01/20 08:54:19;;;;;;;4.57;4.03;;;6.00;1.00;;;;;;4912827;28;20669;-74
2021/01/20 08:56:42;;;;;;;3.50;3.03;;;;;;;;;;4907927;28;20269;-75
2021/01/20 08:59:04;;;;;;;3.83;3.37;;;6.40;99.90;;;;;;4916169;28;20184;-75
2021/01/20 09:01:28;;;;;;;3.80;3.10;;;6.30;99.90;;;;;;4913788;28;20220;-74
2021/01/20 09:03:55;;;;;;;3.93;3.33;;;5.60;99.90;;;;;;4916450;28;20176;-75
2021/01/20 09:06:17;;;;;;;4.03;3.30;;;;;;;;;;4914509;28;20200;-75
2021/01/20 09:08:39;;;;;;;4.27;3.30;;;6.60;1.00;;;;;;4916622;28;20546;-76
2021/01/20 09:11:03;;;;;;;3.93;3.50;;;7.00;99.90;;;;;;4915676;28;20184;-75
2021/01/20 09:13:25;;;;;;;3.30;2.80;;;6.80;99.90;;;;;;4915571;28;20551;-74
2021/01/20 09:15:49;;;;;;;5.37;3.67;;;7.00;99.90;;;;;;4914357;28;20760;-75
2021/01/20 09:18:12;;;;;;;4.53;3.37;;;;;;;;;;4916249;28;20192;-75
2021/01/20 09:20:37;;;;;;;3.40;2.93;;;7.60;99.90;;;;;;4914296;28;20262;-75
2021/01/20 09:23:00;;;;;;;4.50;3.23;;;;;;;;;;4897122;28;20208;-76
2021/01/20 09:25:22;;;;;;;2.63;2.43;;;;;;;;;;4915368;28;20195;-74
2021/01/20 09:27:45;;;;;;;5.07;2.43;;;7.60;99.90;;;;;;4897313;28;20196;-75
2021/01/20 09:30:08;;;;;;;4.20;2.80;;;7.60;1.00;;;;;;4915955;28;20196;-76
2021/01/20 09:32:36;;;;;;;3.53;2.80;;;7.80;1.00;;;;;;4913380;28;20196;-76
2021/01/20 09:34:58;;;;;;;3.00;2.70;;;;;;;;;;4914614;28;20192;-75
2021/01/20 09:37:21;;;;;;;3.10;2.80;;;;;;;;;;4915452;28;20187;-74
2021/01/20 09:39:43;;;;;;;5.53;4.77;;;8.50;1.00;;;;;;4914761;28;20553;-75
2021/01/20 09:42:05;;;;;;;3.77;3.20;;;;;;;;;;4913902;28;20241;-75
2021/01/20 09:44:28;;;;;;;3.40;2.63;;;9.40;1.00;;;;;;4896564;28;20193;-75
2021/01/20 09:46:50;;;;;;;3.37;3.03;;;8.50;99.90;;;;;;4912259;28;20184;-74
2021/01/20 09:49:12;;;;;;;5.03;3.73;;;;;;;;;;4912949;28;20694;-75
2021/01/20 09:51:35;;;;;;;3.57;3.03;;;;;;;;;;4915603;28;20240;-75
2021/01/20 09:53:57;;;;;;;4.03;3.07;;;;;;;;;;4913962;28;20581;-75
2021/01/20 09:56:19;;;;;;;3.37;2.60;;;8.90;99.90;;;;;;4915064;28;20211;-77
2021/01/20 09:58:45;;;;;;;3.80;2.80;;;;;;;;;;4913609;28;20187;-76
2021/01/20 10:01:08;;;;;;;3.37;3.03;;;8.40;99.90;;;;;;4907862;28;20243;-74
2021/01/20 10:03:30;;;;;;;3.03;2.60;;;8.70;99.90;;;;;;4914961;28;20225;-76
2021/01/20 10:05:52;;;;;;;2.70;2.47;;;8.70;99.90;;;;;;4915036;28;20184;-75
2021/01/20 10:08:15;;;;;;;3.07;2.60;;;;;;;;;;4914223;28;20188;-75
2021/01/20 10:10:37;;;;;;;3.37;2.37;;;;;;;;;;4914533;28;20217;-75
2021/01/20 10:12:59;;;;;;;3.53;2.87;;;9.40;1.00;;;;;;4914121;28;20200;-76
2021/01/20 10:15:21;;;;;;;4.20;3.07;;;10.10;99.90;;;;;;4915032;28;20215;-76
2021/01/20 10:17:44;;;;;;;3.90;2.43;;;9.60;99.90;;;;;;4913872;28;20212;-76
2021/01/20 10:20:08;;;;;;;3.37;2.73;;;9.70;99.90;;;;;;4913545;28;20245;-75
2021/01/20 10:22:30;;;;;;;3.63;3.00;;;;;;;;;;4913535;28;20256;-74
2021/01/20 10:24:53;;;;;;;2.90;2.70;;;9.80;1.00;;;;;;4914070;28;20233;-75
2021/01/20 10:27:15;;;;;;;2.50;2.30;;;9.70;60.40;;;;;;4912446;28;20270;-76
2021/01/20 10:29:37;;;;;;;2.70;2.43;;;9.80;99.90;;;;;;4914702;28;20233;-76
2021/01/20 10:32:01;;;;;;;3.67;2.77;;;9.80;99.90;;;;;;4912188;28;20245;-75
2021/01/20 10:34:24;;;;;;;3.07;2.63;;;9.60;1.00;;;;;;4914127;28;20192;-75
2021/01/20 10:36:46;;;;;;;3.03;2.40;;;10.00;1.00;;;;;;4912839;28;20264;-76
2021/01/20 10:39:09;;;;;;;2.70;2.50;;;9.80;99.90;;;;;;4912778;28;20196;-75
2021/01/20 10:41:32;;;;;;;2.50;2.30;;;9.50;99.90;;;;;;4913033;28;20196;-76
2021/01/20 10:43:54;;;;;;;4.03;3.17;;;10.30;1.00;;;;;;4912898;28;20188;-76
2021/01/20 10:46:17;;;;;;;3.03;2.73;;;10.10;99.90;;;;;;4905917;28;20596;-75
2021/01/20 10:48:39;;;;;;;3.23;2.70;;;10.00;1.00;;;;;;4914295;28;20637;-76
2021/01/20 10:51:02;;;;;;;3.00;2.70;;;10.10;1.00;;;;;;4912708;28;20241;-76
2021/01/20 10:53:24;;;;;;;3.27;2.97;;;;;;;;;;4912254;28;20184;-76
2021/01/20 10:55:48;;;;;;;3.00;2.70;;;9.70;5.50;;;;;;4913615;28;20203;-76
2021/01/20 10:58:10;;;;;;;3.40;3.07;;;10.50;1.00;;;;;;4913237;28;20244;-75
2021/01/20 11:00:32;;;;;;;5.73;4.83;;;;;;;;;;4910517;28;20192;-76
2021/01/20 11:02:54;;;;;;;2.90;2.33;;;10.60;1.00;;;;;;4911549;28;20312;-77
2021/01/20 11:05:16;;;;;;;3.83;2.73;;;10.40;47.10;;;;;;4910806;28;20200;-75
2021/01/20 11:07:40;;;;;;;3.30;2.47;;;11.20;99.90;;;;;;4904164;28;20189;-76
2021/01/20 11:10:05;;;;;;;3.00;2.70;;;11.10;1.00;;;;;;4904321;28;20232;-78
2021/01/20 11:12:27;;;;;;;2.30;2.03;;;10.60;97.80;;;;;;4906677;28;20650;-76
2021/01/20 11:14:49;;;;;;;3.33;2.60;;;11.50;1.00;;;;;;4912376;28;20196;-76
2021/01/20 11:17:11;;;;;;;2.53;2.33;;;;;;;;;;4911399;28;20677;-75
2021/01/20 11:19:33;;;;;;;2.20;2.00;;;;;;;;;;4908572;28;20817;-76
2021/01/20 11:21:55;;;;;;;1.83;1.57;;;11.60;51.80;;;;;;4914215;28;20276;-76
2021/01/20 11:24:18;;;;;;;2.00;1.73;;;11.80;32.90;;;;;;4908857;28;20204;-76
2021/01/20 11:26:43;;;;;;;1.90;1.70;;;11.70;45.00;;;;;;4911898;28;20553;-77
2021/01/20 11:29:05;;;;;;;2.40;2.03;;;11.20;1.00;;;;;;4894655;28;20197;-78
2021/01/20 11:31:27;;;;;;;1.67;1.57;;;10.80;71.20;;;;;;4914030;28;20810;-78
2021/01/20 11:33:49;;;;;;;1.70;1.40;;;10.80;1.00;;;;;;4913014;28;20207;-75
2021/01/20 11:36:11;;;;;;;2.33;2.07;;;;;;;;;;4917261;28;20208;-75
2021/01/20 11:38:33;;;;;;;2.00;1.80;;;10.00;1.00;;;;;;4913762;28;20196;-75
2021/01/20 11:40:56;;;;;;;2.80;2.17;;;9.70;1.00;;;;;;4916329;28;20735;-75
2021/01/20 11:43:18;;;;;;;2.77;2.27;;;10.00;99.90;;;;;;4917661;28;20188;-76
2021/01/20 11:45:41;;;;;;;2.17;1.97;;;10.20;99.90;;;;;;4899416;28;20189;-74
2021/01/20 11:48:05;;;;;;;3.67;3.00;;;10.40;1.00;;;;;;4916762;28;20184;-76
2021/01/20 11:50:27;;;;;;;3.00;2.40;;;11.30;99.90;;;;;;4907321;28;20261;-75
2021/01/20 11:52:51;;;;;;;2.80;2.50;;;12.20;99.90;;;;;;4899261;28;20189;-77
2021/01/20 11:55:14;;;;;;;2.57;2.03;;;14.30;1.00;;;;;;4914536;28;20192;-75
2021/01/20 11:57:37;;;;;;;2.93;2.00;;;16.60;1.00;;;;;;4910961;28;20269;-75
2021/01/20 11:59:59;;;;;;;4.00;2.30;;;18.10;1.00;;;;;;4897194;28;20622;-76
2021/01/20 12:02:21;;;;;;;3.03;1.53;;;;;;;;;;4913205;28;20273;-76
2021/01/20 12:04:44;;;;;;;2.07;1.10;;;;;;;;;;4898633;28;20195;-78
2021/01/20 12:07:06;;;;;;;3.67;1.63;;;;;;;;;;4898593;28;20212;-76
2021/01/20 12:09:28;;;;;;;4.13;1.70;;;;;;;;;;4914352;28;20199;-76
2021/01/20 12:11:51;;;;;;;1.30;0.70;;;;;;;;;;4898857;28;20189;-76
2021/01/20 12:14:14;;;;;;;1.80;0.80;;;24.10;1.00;;;;;;4915693;28;20560;-77
2021/01/20 12:16:38;;;;;;;2.23;0.83;;;;;;;;;;4898940;28;20195;-76
2021/01/20 12:19:00;;;;;;;4.63;1.67;;;;;;;;;;4915556;28;20219;-76
2021/01/20 12:21:22;;;;;;;1.43;0.60;;;;;;;;;;4912009;28;20227;-77
2021/01/20 12:23:44;;;;;;;1.97;0.80;;;25.40;1.00;;;;;;4898975;28;20197;-78
2021/01/20 12:26:07;;;;;;;3.97;1.33;;;;;;;;;;4917063;28;20212;-77
2021/01/20 12:28:29;;;;;;;2.33;0.80;;;25.80;1.00;;;;;;4915711;28;20208;-76
2021/01/20 12:30:52;;;;;;;4.80;1.60;;;26.40;1.00;;;;;;4911309;28;20551;-77
2021/01/20 12:33:14;;;;;;;1.07;0.40;;;27.60;1.00;;;;;;4914696;28;20590;-76
2021/01/20 12:35:37;;;;;;;3.17;1.10;;;;;;;;;;4914915;28;20566;-78
2021/01/20 12:37:58;;;;;;;7.20;2.17;;;28.10;1.00;;;;;;4914989;28;20222;-76
2021/01/20 12:40:21;;;;;;;2.17;0.73;;;28.30;1.00;;;;;;4914288;28;20217;-77
2021/01/20 12:42:43;;;;;;;3.63;1.17;;;;;;;;;;4915216;28;20191;-77
2021/01/20 12:45:07;;;;;;;4.67;1.50;;;27.60;1.00;;;;;;4915792;28;20244;-77
2021/01/20 12:47:29;;;;;;;1.83;0.73;;;27.50;1.00;;;;;;4905965;28;20227;-78
2021/01/20 12:49:52;;;;;;;3.03;1.03;;;26.50;1.00;;;;;;4909414;28;20194;-77
2021/01/20 12:52:14;;;;;;;3.23;1.13;;;;;;;;;;4914441;28;20256;-75
2021/01/20 12:54:36;;;;;;;2.90;1.03;;;;;;;;;;4915914;28;20184;-75
2021/01/20 12:56:58;;;;;;;2.97;1.10;;;;;;;;;;4914823;28;20197;-75
2021/01/20 12:59:20;;;;;;;1.27;0.60;;;21.60;1.00;;;;;;4915073;28;20191;-75
2021/01/20 13:01:43;;;;;;;3.33;1.57;;;;;;;;;;4913603;28;20220;-75
2021/01/20 13:04:08;;;;;;;3.27;1.53;;;19.00;1.00;;;;;;4913821;28;20210;-75
2021/01/20 13:06:30;;;;;;;1.30;0.77;;;;;;;;;;4907539;28;20192;-75
2021/01/20 13:08:52;;;;;;;0.63;0.47;;;16.70;1.00;;;;;;4913707;28;20203;-74